sensor_id;sensor_type;location;lat;lon;timestamp;temperature;humidity
40534;DHT22;26233;51.894;10.192;2023-01-16T00:00:58;7.10;50.50
40534;DHT22;26233;51.894;10.192;2023-01-16T00:03:26;7.10;50.60
40534;DHT22;26233;51.894;10.192;2023-01-16T00:05:53;7.10;50.60
40534;DHT22;26233;51.894;10.192;2023-01-16T00:08:22;7.10;50.70
40534;DHT22;26233;51.894;10.192;2023-01-16T00:10:49;7.10;50.60
40534;DHT22;26233;51.894;10.192;2023-01-16T00:13:18;7.10;50.80
40534;DHT22;26233;51.894;10.192;2023-01-16T00:15:45;7.10;50.70
40534;DHT22;26233;51.894;10.192;2023-01-16T00:18:13;7.10;50.70
40534;DHT22;26233;51.894;10.192;2023-01-16T00:20:43;7.10;50.70
40534;DHT22;26233;51.894;10.192;2023-01-16T00:23:10;7.10;50.70
40534;DHT22;26233;51.894;10.192;2023-01-16T00:25:38;7.10;50.90
40534;DHT22;26233;51.894;10.192;2023-01-16T00:28:08;7.10;50.80
40534;DHT22;26233;51.894;10.192;2023-01-16T00:30:35;7.10;50.70
40534;DHT22;26233;51.894;10.192;2023-01-16T00:33:03;7.10;50.80
40534;DHT22;26233;51.894;10.192;2023-01-16T00:35:31;7.10;51.00
40534;DHT22;26233;51.894;10.192;2023-01-16T00:37:58;7.20;51.00
40534;DHT22;26233;51.894;10.192;2023-01-16T00:40:26;7.20;50.90
40534;DHT22;26233;51.894;10.192;2023-01-16T00:42:53;7.20;50.80
40534;DHT22;26233;51.894;10.192;2023-01-16T00:45:22;7.20;51.50
40534;DHT22;26233;51.894;10.192;2023-01-16T00:47:49;7.20;51.00
40534;DHT22;26233;51.894;10.192;2023-01-16T00:50:16;7.20;50.60
40534;DHT22;26233;51.894;10.192;2023-01-16T00:52:45;7.30;50.80
40534;DHT22;26233;51.894;10.192;2023-01-16T00:55:12;7.30;50.90
40534;DHT22;26233;51.894;10.192;2023-01-16T00:57:42;7.30;50.90
40534;DHT22;26233;51.894;10.192;2023-01-16T01:00:10;7.30;50.80
40534;DHT22;26233;51.894;10.192;2023-01-16T01:02:39;7.30;51.00
40534;DHT22;26233;51.894;10.192;2023-01-16T01:05:07;7.30;50.70
40534;DHT22;26233;51.894;10.192;2023-01-16T01:07:34;7.30;51.00
40534;DHT22;26233;51.894;10.192;2023-01-16T01:10:04;7.30;51.10
40534;DHT22;26233;51.894;10.192;2023-01-16T01:12:32;7.30;51.10
40534;DHT22;26233;51.894;10.192;2023-01-16T01:14:59;7.40;51.10
40534;DHT22;26233;51.894;10.192;2023-01-16T01:17:26;7.40;51.00
40534;DHT22;26233;51.894;10.192;2023-01-16T01:19:54;7.40;51.00
40534;DHT22;26233;51.894;10.192;2023-01-16T01:22:24;7.40;51.10
40534;DHT22;26233;51.894;10.192;2023-01-16T01:24:52;7.40;51.10
40534;DHT22;26233;51.894;10.192;2023-01-16T01:27:20;7.50;51.10
40534;DHT22;26233;51.894;10.192;2023-01-16T01:29:47;7.50;51.10
40534;DHT22;26233;51.894;10.192;2023-01-16T01:32:14;7.50;51.20
40534;DHT22;26233;51.894;10.192;2023-01-16T01:34:41;7.50;50.90
40534;DHT22;26233;51.894;10.192;2023-01-16T01:37:10;7.50;51.00
40534;DHT22;26233;51.894;10.192;2023-01-16T01:39:37;7.50;50.90
40534;DHT22;26233;51.894;10.192;2023-01-16T01:42:04;7.50;51.00
40534;DHT22;26233;51.894;10.192;2023-01-16T01:44:51;7.50;51.00
40534;DHT22;26233;51.894;10.192;2023-01-16T01:47:21;7.50;50.80
40534;DHT22;26233;51.894;10.192;2023-01-16T01:49:51;7.50;50.70
40534;DHT22;26233;51.894;10.192;2023-01-16T01:52:21;7.50;50.80
40534;DHT22;26233;51.894;10.192;2023-01-16T01:54:52;7.50;50.80
40534;DHT22;26233;51.894;10.192;2023-01-16T01:57:24;7.50;50.80
40534;DHT22;26233;51.894;10.192;2023-01-16T01:59:56;7.50;50.70
40534;DHT22;26233;51.894;10.192;2023-01-16T02:02:28;7.40;50.80
40534;DHT22;26233;51.894;10.192;2023-01-16T02:04:57;7.40;50.70
40534;DHT22;26233;51.894;10.192;2023-01-16T02:07:29;7.40;50.60
40534;DHT22;26233;51.894;10.192;2023-01-16T02:10:03;7.40;50.30
40534;DHT22;26233;51.894;10.192;2023-01-16T02:12:42;7.40;50.50
40534;DHT22;26233;51.894;10.192;2023-01-16T02:15:09;7.40;50.50
40534;DHT22;26233;51.894;10.192;2023-01-16T02:17:43;7.40;50.80
40534;DHT22;26233;51.894;10.192;2023-01-16T02:20:28;7.40;50.50
40534;DHT22;26233;51.894;10.192;2023-01-16T02:26:42;7.40;50.50
40534;DHT22;26233;51.894;10.192;2023-01-16T02:29:38;7.30;50.20
40534;DHT22;26233;51.894;10.192;2023-01-16T02:32:38;7.30;50.00
40534;DHT22;26233;51.894;10.192;2023-01-16T02:38:34;7.30;50.30
40534;DHT22;26233;51.894;10.192;2023-01-16T02:41:15;7.30;50.70
40534;DHT22;26233;51.894;10.192;2023-01-16T02:43:52;7.40;50.60
40534;DHT22;26233;51.894;10.192;2023-01-16T02:46:27;7.30;50.70
40534;DHT22;26233;51.894;10.192;2023-01-16T02:49:06;7.30;50.80
40534;DHT22;26233;51.894;10.192;2023-01-16T02:51:40;7.30;50.80
40534;DHT22;26233;51.894;10.192;2023-01-16T02:54:15;7.30;50.90
40534;DHT22;26233;51.894;10.192;2023-01-16T02:56:48;7.30;50.80
40534;DHT22;26233;51.894;10.192;2023-01-16T02:59:18;7.30;50.80
40534;DHT22;26233;51.894;10.192;2023-01-16T03:01:46;7.30;51.00
40534;DHT22;26233;51.894;10.192;2023-01-16T03:04:43;7.30;51.20
40534;DHT22;26233;51.894;10.192;2023-01-16T03:07:34;7.30;50.80
40534;DHT22;26233;51.894;10.192;2023-01-16T03:10:29;7.30;50.90
40534;DHT22;26233;51.894;10.192;2023-01-16T03:13:18;7.30;50.50
40534;DHT22;26233;51.894;10.192;2023-01-16T03:15:57;7.30;50.70
40534;DHT22;26233;51.894;10.192;2023-01-16T03:18:34;7.30;50.80
40534;DHT22;26233;51.894;10.192;2023-01-16T03:21:12;7.30;50.90
40534;DHT22;26233;51.894;10.192;2023-01-16T03:23:50;7.30;50.90
40534;DHT22;26233;51.894;10.192;2023-01-16T03:26:26;7.30;50.90
40534;DHT22;26233;51.894;10.192;2023-01-16T03:29:03;7.30;50.90
40534;DHT22;26233;51.894;10.192;2023-01-16T03:31:38;7.30;51.10
40534;DHT22;26233;51.894;10.192;2023-01-16T03:34:20;7.30;51.20
40534;DHT22;26233;51.894;10.192;2023-01-16T03:36:57;7.30;51.10
40534;DHT22;26233;51.894;10.192;2023-01-16T03:39:29;7.30;51.10
40534;DHT22;26233;51.894;10.192;2023-01-16T03:42:02;7.30;51.20
40534;DHT22;26233;51.894;10.192;2023-01-16T03:44:34;7.20;51.10
40534;DHT22;26233;51.894;10.192;2023-01-16T03:47:06;7.20;51.20
40534;DHT22;26233;51.894;10.192;2023-01-16T03:49:38;7.20;51.00
40534;DHT22;26233;51.894;10.192;2023-01-16T03:52:14;7.20;51.20
40534;DHT22;26233;51.894;10.192;2023-01-16T03:54:46;7.20;51.00
40534;DHT22;26233;51.894;10.192;2023-01-16T03:57:18;7.20;51.10
40534;DHT22;26233;51.894;10.192;2023-01-16T03:59:49;7.10;51.10
40534;DHT22;26233;51.894;10.192;2023-01-16T04:02:19;7.10;51.20
40534;DHT22;26233;51.894;10.192;2023-01-16T04:04:55;7.10;51.40
40534;DHT22;26233;51.894;10.192;2023-01-16T04:07:31;7.10;51.20
40534;DHT22;26233;51.894;10.192;2023-01-16T04:10:03;7.10;51.20
40534;DHT22;26233;51.894;10.192;2023-01-16T04:12:35;7.10;51.30
40534;DHT22;26233;51.894;10.192;2023-01-16T04:15:06;7.10;51.40
40534;DHT22;26233;51.894;10.192;2023-01-16T04:17:35;7.10;51.40
40534;DHT22;26233;51.894;10.192;2023-01-16T04:20:05;7.10;51.40
40534;DHT22;26233;51.894;10.192;2023-01-16T04:22:35;7.10;51.40
40534;DHT22;26233;51.894;10.192;2023-01-16T04:25:06;7.10;51.30
40534;DHT22;26233;51.894;10.192;2023-01-16T04:27:35;7.10;51.50
40534;DHT22;26233;51.894;10.192;2023-01-16T04:30:04;7.10;51.60
40534;DHT22;26233;51.894;10.192;2023-01-16T04:32:32;7.20;51.70
40534;DHT22;26233;51.894;10.192;2023-01-16T04:34:59;7.20;51.70
40534;DHT22;26233;51.894;10.192;2023-01-16T04:37:26;7.20;51.70
40534;DHT22;26233;51.894;10.192;2023-01-16T04:39:56;7.20;51.70
40534;DHT22;26233;51.894;10.192;2023-01-16T04:42:24;7.00;51.20
40534;DHT22;26233;51.894;10.192;2023-01-16T04:44:51;7.10;51.40
40534;DHT22;26233;51.894;10.192;2023-01-16T04:47:18;7.10;51.40
40534;DHT22;26233;51.894;10.192;2023-01-16T04:49:45;7.10;51.50
40534;DHT22;26233;51.894;10.192;2023-01-16T04:52:14;7.10;51.50
40534;DHT22;26233;51.894;10.192;2023-01-16T04:54:41;7.10;51.60
40534;DHT22;26233;51.894;10.192;2023-01-16T04:57:09;7.10;51.70
40534;DHT22;26233;51.894;10.192;2023-01-16T04:59:36;7.10;51.50
40534;DHT22;26233;51.894;10.192;2023-01-16T05:02:03;7.10;51.70
40534;DHT22;26233;51.894;10.192;2023-01-16T05:04:30;7.10;51.80
40534;DHT22;26233;51.894;10.192;2023-01-16T05:06:57;7.10;51.80
40534;DHT22;26233;51.894;10.192;2023-01-16T05:09:27;7.10;51.60
40534;DHT22;26233;51.894;10.192;2023-01-16T05:11:54;7.10;51.70
40534;DHT22;26233;51.894;10.192;2023-01-16T05:14:23;7.10;51.70
40534;DHT22;26233;51.894;10.192;2023-01-16T05:16:50;7.20;51.90
40534;DHT22;26233;51.894;10.192;2023-01-16T05:19:17;7.10;51.70
40534;DHT22;26233;51.894;10.192;2023-01-16T05:21:44;7.20;51.60
40534;DHT22;26233;51.894;10.192;2023-01-16T05:24:11;7.10;51.50
40534;DHT22;26233;51.894;10.192;2023-01-16T05:26:38;7.10;51.70
40534;DHT22;26233;51.894;10.192;2023-01-16T05:29:05;7.10;51.80
40534;DHT22;26233;51.894;10.192;2023-01-16T05:31:33;7.00;51.70
40534;DHT22;26233;51.894;10.192;2023-01-16T05:34:02;7.00;51.70
40534;DHT22;26233;51.894;10.192;2023-01-16T05:36:29;7.00;51.70
40534;DHT22;26233;51.894;10.192;2023-01-16T05:38:56;7.00;52.40
40534;DHT22;26233;51.894;10.192;2023-01-16T05:41:26;7.00;52.00
40534;DHT22;26233;51.894;10.192;2023-01-16T05:43:53;7.00;51.90
40534;DHT22;26233;51.894;10.192;2023-01-16T05:46:20;7.00;52.00
40534;DHT22;26233;51.894;10.192;2023-01-16T05:48:49;7.00;52.10
40534;DHT22;26233;51.894;10.192;2023-01-16T05:51:16;6.90;52.00
40534;DHT22;26233;51.894;10.192;2023-01-16T05:53:43;7.00;52.20
40534;DHT22;26233;51.894;10.192;2023-01-16T05:56:11;6.90;52.10
40534;DHT22;26233;51.894;10.192;2023-01-16T05:58:39;6.90;52.00
40534;DHT22;26233;51.894;10.192;2023-01-16T06:01:06;6.90;52.00
40534;DHT22;26233;51.894;10.192;2023-01-16T06:03:33;7.00;52.10
40534;DHT22;26233;51.894;10.192;2023-01-16T06:06:01;7.00;52.20
40534;DHT22;26233;51.894;10.192;2023-01-16T06:08:32;7.00;52.20
40534;DHT22;26233;51.894;10.192;2023-01-16T06:10:59;7.00;52.20
40534;DHT22;26233;51.894;10.192;2023-01-16T06:13:26;7.00;52.10
40534;DHT22;26233;51.894;10.192;2023-01-16T06:15:53;7.00;52.20
40534;DHT22;26233;51.894;10.192;2023-01-16T06:18:20;7.00;52.20
40534;DHT22;26233;51.894;10.192;2023-01-16T06:20:48;7.00;52.20
40534;DHT22;26233;51.894;10.192;2023-01-16T06:23:18;7.00;52.20
40534;DHT22;26233;51.894;10.192;2023-01-16T06:25:48;7.00;52.40
40534;DHT22;26233;51.894;10.192;2023-01-16T06:28:15;7.00;52.40
40534;DHT22;26233;51.894;10.192;2023-01-16T06:30:43;7.00;52.20
40534;DHT22;26233;51.894;10.192;2023-01-16T06:33:10;7.00;52.30
40534;DHT22;26233;51.894;10.192;2023-01-16T06:35:37;7.00;52.20
40534;DHT22;26233;51.894;10.192;2023-01-16T06:38:04;7.10;52.40
40534;DHT22;26233;51.894;10.192;2023-01-16T06:40:32;7.00;52.20
40534;DHT22;26233;51.894;10.192;2023-01-16T06:42:59;7.10;52.20
40534;DHT22;26233;51.894;10.192;2023-01-16T06:45:26;7.10;52.10
40534;DHT22;26233;51.894;10.192;2023-01-16T06:47:53;7.10;51.90
40534;DHT22;26233;51.894;10.192;2023-01-16T06:50:20;7.10;52.10
40534;DHT22;26233;51.894;10.192;2023-01-16T06:52:48;7.10;52.10
40534;DHT22;26233;51.894;10.192;2023-01-16T06:55:15;7.10;52.20
40534;DHT22;26233;51.894;10.192;2023-01-16T06:57:43;7.10;52.10
40534;DHT22;26233;51.894;10.192;2023-01-16T07:00:12;7.00;51.90
40534;DHT22;26233;51.894;10.192;2023-01-16T07:02:40;7.00;51.80
40534;DHT22;26233;51.894;10.192;2023-01-16T07:05:07;7.00;51.90
40534;DHT22;26233;51.894;10.192;2023-01-16T07:07:35;7.00;51.90
40534;DHT22;26233;51.894;10.192;2023-01-16T07:10:02;7.00;51.80
40534;DHT22;26233;51.894;10.192;2023-01-16T07:12:30;6.90;51.70
40534;DHT22;26233;51.894;10.192;2023-01-16T07:14:58;6.90;52.00
40534;DHT22;26233;51.894;10.192;2023-01-16T07:17:42;7.00;52.00
40534;DHT22;26233;51.894;10.192;2023-01-16T07:20:27;7.00;52.20
40534;DHT22;26233;51.894;10.192;2023-01-16T07:23:16;7.00;52.10
40534;DHT22;26233;51.894;10.192;2023-01-16T07:25:46;7.00;52.20
40534;DHT22;26233;51.894;10.192;2023-01-16T07:28:13;7.00;52.20
40534;DHT22;26233;51.894;10.192;2023-01-16T07:30:45;7.10;52.10
40534;DHT22;26233;51.894;10.192;2023-01-16T07:33:12;7.10;52.10
40534;DHT22;26233;51.894;10.192;2023-01-16T07:35:39;7.10;52.10
40534;DHT22;26233;51.894;10.192;2023-01-16T07:38:06;7.20;52.40
40534;DHT22;26233;51.894;10.192;2023-01-16T07:40:33;7.20;51.90
40534;DHT22;26233;51.894;10.192;2023-01-16T07:43:00;7.20;51.90
40534;DHT22;26233;51.894;10.192;2023-01-16T07:45:29;7.20;52.60
40534;DHT22;26233;51.894;10.192;2023-01-16T07:47:57;7.20;52.00
40534;DHT22;26233;51.894;10.192;2023-01-16T07:50:27;7.20;51.90
40534;DHT22;26233;51.894;10.192;2023-01-16T07:52:54;7.20;51.90
40534;DHT22;26233;51.894;10.192;2023-01-16T07:55:21;7.20;51.90
40534;DHT22;26233;51.894;10.192;2023-01-16T07:57:48;7.20;52.00
40534;DHT22;26233;51.894;10.192;2023-01-16T08:00:16;7.20;51.90
40534;DHT22;26233;51.894;10.192;2023-01-16T08:02:43;7.20;52.00
40534;DHT22;26233;51.894;10.192;2023-01-16T08:05:12;7.20;52.10
40534;DHT22;26233;51.894;10.192;2023-01-16T08:07:39;7.20;52.00
40534;DHT22;26233;51.894;10.192;2023-01-16T08:10:06;7.30;52.00
40534;DHT22;26233;51.894;10.192;2023-01-16T08:12:34;7.30;52.20
40534;DHT22;26233;51.894;10.192;2023-01-16T08:15:01;7.30;52.00
40534;DHT22;26233;51.894;10.192;2023-01-16T08:17:28;7.30;52.20
40534;DHT22;26233;51.894;10.192;2023-01-16T08:19:55;7.40;52.30
40534;DHT22;26233;51.894;10.192;2023-01-16T08:22:23;7.40;52.40
40534;DHT22;26233;51.894;10.192;2023-01-16T08:24:50;7.50;52.50
40534;DHT22;26233;51.894;10.192;2023-01-16T08:27:17;7.50;51.70
40534;DHT22;26233;51.894;10.192;2023-01-16T08:29:44;7.50;51.70
40534;DHT22;26233;51.894;10.192;2023-01-16T08:32:11;7.50;51.80
40534;DHT22;26233;51.894;10.192;2023-01-16T08:34:38;7.50;51.60
40534;DHT22;26233;51.894;10.192;2023-01-16T08:37:08;7.50;51.90
40534;DHT22;26233;51.894;10.192;2023-01-16T08:39:38;7.50;51.00
40534;DHT22;26233;51.894;10.192;2023-01-16T08:42:05;7.50;51.50
40534;DHT22;26233;51.894;10.192;2023-01-16T08:44:49;7.60;51.90
40534;DHT22;26233;51.894;10.192;2023-01-16T08:47:34;7.50;51.70
40534;DHT22;26233;51.894;10.192;2023-01-16T08:50:20;7.50;51.80
40534;DHT22;26233;51.894;10.192;2023-01-16T08:53:05;7.50;51.50
40534;DHT22;26233;51.894;10.192;2023-01-16T08:55:33;7.50;51.70
40534;DHT22;26233;51.894;10.192;2023-01-16T08:58:01;7.50;51.60
40534;DHT22;26233;51.894;10.192;2023-01-16T09:00:29;7.50;51.60
40534;DHT22;26233;51.894;10.192;2023-01-16T09:02:56;7.50;51.40
40534;DHT22;26233;51.894;10.192;2023-01-16T09:05:27;7.60;51.70
40534;DHT22;26233;51.894;10.192;2023-01-16T09:07:54;7.60;51.90
40534;DHT22;26233;51.894;10.192;2023-01-16T09:10:22;7.60;51.70
40534;DHT22;26233;51.894;10.192;2023-01-16T09:12:51;7.60;51.60
40534;DHT22;26233;51.894;10.192;2023-01-16T09:15:36;7.60;51.60
40534;DHT22;26233;51.894;10.192;2023-01-16T09:18:03;7.70;51.70
40534;DHT22;26233;51.894;10.192;2023-01-16T09:20:30;7.70;51.60
40534;DHT22;26233;51.894;10.192;2023-01-16T09:22:58;7.70;51.50
40534;DHT22;26233;51.894;10.192;2023-01-16T09:25:26;7.80;51.80
40534;DHT22;26233;51.894;10.192;2023-01-16T09:27:54;7.80;52.00
40534;DHT22;26233;51.894;10.192;2023-01-16T09:30:25;7.90;51.60
40534;DHT22;26233;51.894;10.192;2023-01-16T09:32:56;7.90;51.40
40534;DHT22;26233;51.894;10.192;2023-01-16T09:35:23;8.00;51.60
40534;DHT22;26233;51.894;10.192;2023-01-16T09:37:50;8.00;51.20
40534;DHT22;26233;51.894;10.192;2023-01-16T09:40:19;8.00;50.40
40534;DHT22;26233;51.894;10.192;2023-01-16T09:43:02;8.10;51.00
40534;DHT22;26233;51.894;10.192;2023-01-16T09:45:55;8.10;51.10
40534;DHT22;26233;51.894;10.192;2023-01-16T09:48:26;8.10;51.00
40534;DHT22;26233;51.894;10.192;2023-01-16T09:50:58;8.20;50.90
40534;DHT22;26233;51.894;10.192;2023-01-16T09:53:36;8.30;51.50
40534;DHT22;26233;51.894;10.192;2023-01-16T09:56:28;8.40;51.50
40534;DHT22;26233;51.894;10.192;2023-01-16T09:59:22;8.50;51.90
40534;DHT22;26233;51.894;10.192;2023-01-16T10:01:57;8.60;51.40
40534;DHT22;26233;51.894;10.192;2023-01-16T10:04:28;8.70;51.00
40534;DHT22;26233;51.894;10.192;2023-01-16T10:07:23;8.70;50.90
40534;DHT22;26233;51.894;10.192;2023-01-16T10:10:02;8.70;50.60
40534;DHT22;26233;51.894;10.192;2023-01-16T10:12:35;8.70;50.70
40534;DHT22;26233;51.894;10.192;2023-01-16T10:15:14;8.80;51.00
40534;DHT22;26233;51.894;10.192;2023-01-16T10:17:53;8.70;50.20
40534;DHT22;26233;51.894;10.192;2023-01-16T10:20:39;8.70;49.70
40534;DHT22;26233;51.894;10.192;2023-01-16T10:23:30;8.70;48.80
40534;DHT22;26233;51.894;10.192;2023-01-16T10:26:07;8.70;49.70
40534;DHT22;26233;51.894;10.192;2023-01-16T10:28:46;8.80;50.60
40534;DHT22;26233;51.894;10.192;2023-01-16T10:31:24;8.80;50.40
40534;DHT22;26233;51.894;10.192;2023-01-16T10:33:57;8.90;50.70
40534;DHT22;26233;51.894;10.192;2023-01-16T10:36:28;8.90;50.80
40534;DHT22;26233;51.894;10.192;2023-01-16T10:38:59;9.00;50.60
40534;DHT22;26233;51.894;10.192;2023-01-16T10:41:28;9.00;49.90
40534;DHT22;26233;51.894;10.192;2023-01-16T10:44:27;9.10;50.00
40534;DHT22;26233;51.894;10.192;2023-01-16T10:47:18;9.10;50.10
40534;DHT22;26233;51.894;10.192;2023-01-16T10:50:06;9.10;49.70
40534;DHT22;26233;51.894;10.192;2023-01-16T10:52:35;9.10;49.70
40534;DHT22;26233;51.894;10.192;2023-01-16T10:55:04;9.10;49.70
40534;DHT22;26233;51.894;10.192;2023-01-16T10:57:31;9.10;49.30
40534;DHT22;26233;51.894;10.192;2023-01-16T11:00:03;9.10;49.20
40534;DHT22;26233;51.894;10.192;2023-01-16T11:02:38;9.10;49.30
40534;DHT22;26233;51.894;10.192;2023-01-16T11:05:28;9.00;49.50
40534;DHT22;26233;51.894;10.192;2023-01-16T11:08:04;9.30;48.70
40534;DHT22;26233;51.894;10.192;2023-01-16T11:10:33;9.30;49.80
40534;DHT22;26233;51.894;10.192;2023-01-16T11:13:00;9.40;49.00
40534;DHT22;26233;51.894;10.192;2023-01-16T11:16:00;9.50;49.30
40534;DHT22;26233;51.894;10.192;2023-01-16T11:18:47;9.50;48.50
40534;DHT22;26233;51.894;10.192;2023-01-16T11:21:16;9.50;47.90
40534;DHT22;26233;51.894;10.192;2023-01-16T11:23:47;9.50;47.30
40534;DHT22;26233;51.894;10.192;2023-01-16T11:26:15;9.40;46.50
40534;DHT22;26233;51.894;10.192;2023-01-16T11:28:45;9.40;47.60
40534;DHT22;26233;51.894;10.192;2023-01-16T11:31:18;9.30;46.10
40534;DHT22;26233;51.894;10.192;2023-01-16T11:33:49;9.30;47.40
40534;DHT22;26233;51.894;10.192;2023-01-16T11:36:21;9.20;47.10
40534;DHT22;26233;51.894;10.192;2023-01-16T11:38:50;9.10;47.00
40534;DHT22;26233;51.894;10.192;2023-01-16T11:41:26;9.10;47.00
40534;DHT22;26233;51.894;10.192;2023-01-16T11:44:13;9.10;47.00
40534;DHT22;26233;51.894;10.192;2023-01-16T11:46:59;9.00;47.10
40534;DHT22;26233;51.894;10.192;2023-01-16T11:49:33;9.00;47.50
40534;DHT22;26233;51.894;10.192;2023-01-16T11:52:02;9.00;47.80
40534;DHT22;26233;51.894;10.192;2023-01-16T11:54:31;9.10;48.50
40534;DHT22;26233;51.894;10.192;2023-01-16T11:57:21;9.10;49.10
40534;DHT22;26233;51.894;10.192;2023-01-16T12:00:16;9.10;48.30
40534;DHT22;26233;51.894;10.192;2023-01-16T12:03:00;9.20;48.30
40534;DHT22;26233;51.894;10.192;2023-01-16T12:05:48;9.20;48.30
40534;DHT22;26233;51.894;10.192;2023-01-16T12:08:33;9.20;47.60
40534;DHT22;26233;51.894;10.192;2023-01-16T12:11:08;9.20;47.50
40534;DHT22;26233;51.894;10.192;2023-01-16T12:13:43;9.20;48.10
40534;DHT22;26233;51.894;10.192;2023-01-16T12:16:40;9.20;47.60
40534;DHT22;26233;51.894;10.192;2023-01-16T12:19:42;9.00;48.60
40534;DHT22;26233;51.894;10.192;2023-01-16T12:22:25;9.20;46.80
40534;DHT22;26233;51.894;10.192;2023-01-16T12:25:05;9.10;47.00
40534;DHT22;26233;51.894;10.192;2023-01-16T12:27:51;9.10;47.40
40534;DHT22;26233;51.894;10.192;2023-01-16T12:30:33;9.00;47.70
40534;DHT22;26233;51.894;10.192;2023-01-16T12:33:12;9.00;47.70
40534;DHT22;26233;51.894;10.192;2023-01-16T12:35:54;9.00;47.90
40534;DHT22;26233;51.894;10.192;2023-01-16T12:38:32;8.90;47.10
40534;DHT22;26233;51.894;10.192;2023-01-16T12:41:17;9.00;47.50
40534;DHT22;26233;51.894;10.192;2023-01-16T12:44:26;8.90;46.40
40534;DHT22;26233;51.894;10.192;2023-01-16T12:47:26;8.90;47.70
40534;DHT22;26233;51.894;10.192;2023-01-16T12:50:10;8.90;47.30
40534;DHT22;26233;51.894;10.192;2023-01-16T12:52:55;8.80;47.40
40534;DHT22;26233;51.894;10.192;2023-01-16T12:55:40;8.90;47.00
40534;DHT22;26233;51.894;10.192;2023-01-16T12:58:13;8.80;47.50
40534;DHT22;26233;51.894;10.192;2023-01-16T13:00:43;8.80;47.60
40534;DHT22;26233;51.894;10.192;2023-01-16T13:03:24;8.90;46.90
40534;DHT22;26233;51.894;10.192;2023-01-16T13:05:55;8.80;47.30
40534;DHT22;26233;51.894;10.192;2023-01-16T13:08:28;8.90;47.50
40534;DHT22;26233;51.894;10.192;2023-01-16T13:11:03;8.90;47.40
40534;DHT22;26233;51.894;10.192;2023-01-16T13:13:53;8.90;47.90
40534;DHT22;26233;51.894;10.192;2023-01-16T13:16:27;9.00;48.30
40534;DHT22;26233;51.894;10.192;2023-01-16T13:19:01;9.00;48.20
40534;DHT22;26233;51.894;10.192;2023-01-16T13:21:36;9.00;48.10
40534;DHT22;26233;51.894;10.192;2023-01-16T13:24:12;9.10;48.20
40534;DHT22;26233;51.894;10.192;2023-01-16T13:26:48;9.10;47.80
40534;DHT22;26233;51.894;10.192;2023-01-16T13:29:22;9.10;47.70
40534;DHT22;26233;51.894;10.192;2023-01-16T13:31:58;9.00;47.50
40534;DHT22;26233;51.894;10.192;2023-01-16T13:34:29;9.00;47.70
40534;DHT22;26233;51.894;10.192;2023-01-16T13:37:19;9.00;47.80
40534;DHT22;26233;51.894;10.192;2023-01-16T13:40:20;8.90;47.00
40534;DHT22;26233;51.894;10.192;2023-01-16T13:42:58;8.80;47.00
40534;DHT22;26233;51.894;10.192;2023-01-16T13:45:48;8.70;46.30
40534;DHT22;26233;51.894;10.192;2023-01-16T13:48:18;8.60;47.30
40534;DHT22;26233;51.894;10.192;2023-01-16T13:50:52;8.40;47.00
40534;DHT22;26233;51.894;10.192;2023-01-16T13:53:24;8.40;47.40
40534;DHT22;26233;51.894;10.192;2023-01-16T13:56:02;8.30;47.50
40534;DHT22;26233;51.894;10.192;2023-01-16T13:58:37;8.20;47.50
40534;DHT22;26233;51.894;10.192;2023-01-16T14:01:06;8.10;47.80
40534;DHT22;26233;51.894;10.192;2023-01-16T14:06:55;8.00;47.40
40534;DHT22;26233;51.894;10.192;2023-01-16T14:10:13;7.90;47.70
40534;DHT22;26233;51.894;10.192;2023-01-16T14:12:59;7.80;47.40
40534;DHT22;26233;51.894;10.192;2023-01-16T14:18:36;7.70;47.50
40534;DHT22;26233;51.894;10.192;2023-01-16T14:21:16;7.50;47.40
40534;DHT22;26233;51.894;10.192;2023-01-16T14:23:48;7.50;47.70
40534;DHT22;26233;51.894;10.192;2023-01-16T14:26:38;7.40;47.90
40534;DHT22;26233;51.894;10.192;2023-01-16T14:29:16;7.30;47.90
40534;DHT22;26233;51.894;10.192;2023-01-16T14:31:51;7.30;47.80
40534;DHT22;26233;51.894;10.192;2023-01-16T14:34:25;7.30;48.00
40534;DHT22;26233;51.894;10.192;2023-01-16T14:36:59;7.20;48.10
40534;DHT22;26233;51.894;10.192;2023-01-16T14:39:32;7.20;47.80
40534;DHT22;26233;51.894;10.192;2023-01-16T14:42:05;7.20;48.20
40534;DHT22;26233;51.894;10.192;2023-01-16T14:44:58;7.20;48.50
40534;DHT22;26233;51.894;10.192;2023-01-16T14:48:10;7.20;48.50
40534;DHT22;26233;51.894;10.192;2023-01-16T14:51:13;7.20;48.60
40534;DHT22;26233;51.894;10.192;2023-01-16T14:54:04;7.20;48.40
40534;DHT22;26233;51.894;10.192;2023-01-16T14:56:53;7.20;48.60
40534;DHT22;26233;51.894;10.192;2023-01-16T14:59:29;7.30;48.50
40534;DHT22;26233;51.894;10.192;2023-01-16T15:02:02;7.30;48.50
40534;DHT22;26233;51.894;10.192;2023-01-16T15:04:51;7.30;48.40
40534;DHT22;26233;51.894;10.192;2023-01-16T15:07:26;7.30;48.30
40534;DHT22;26233;51.894;10.192;2023-01-16T15:10:00;7.30;48.30
40534;DHT22;26233;51.894;10.192;2023-01-16T15:12:38;7.30;48.50
40534;DHT22;26233;51.894;10.192;2023-01-16T15:15:19;7.30;48.50
40534;DHT22;26233;51.894;10.192;2023-01-16T15:17:49;7.40;48.40
40534;DHT22;26233;51.894;10.192;2023-01-16T15:20:36;7.30;48.20
40534;DHT22;26233;51.894;10.192;2023-01-16T15:23:25;7.30;48.40
40534;DHT22;26233;51.894;10.192;2023-01-16T15:26:08;7.30;48.50
40534;DHT22;26233;51.894;10.192;2023-01-16T15:28:49;7.30;48.20
40534;DHT22;26233;51.894;10.192;2023-01-16T15:31:26;7.30;48.10
40534;DHT22;26233;51.894;10.192;2023-01-16T15:34:02;7.30;48.50
40534;DHT22;26233;51.894;10.192;2023-01-16T15:36:36;7.30;47.90
40534;DHT22;26233;51.894;10.192;2023-01-16T15:39:17;7.30;48.20
40534;DHT22;26233;51.894;10.192;2023-01-16T15:41:50;7.40;48.50
40534;DHT22;26233;51.894;10.192;2023-01-16T15:44:39;7.30;48.30
40534;DHT22;26233;51.894;10.192;2023-01-16T15:47:39;7.30;48.30
40534;DHT22;26233;51.894;10.192;2023-01-16T15:50:21;7.40;48.20
40534;DHT22;26233;51.894;10.192;2023-01-16T15:52:53;7.40;48.70
40534;DHT22;26233;51.894;10.192;2023-01-16T15:55:24;7.40;48.80
40534;DHT22;26233;51.894;10.192;2023-01-16T15:57:54;7.40;48.40
40534;DHT22;26233;51.894;10.192;2023-01-16T16:00:27;7.40;48.60
40534;DHT22;26233;51.894;10.192;2023-01-16T16:02:57;7.40;48.60
40534;DHT22;26233;51.894;10.192;2023-01-16T16:05:26;7.50;48.70
40534;DHT22;26233;51.894;10.192;2023-01-16T16:07:54;7.50;48.50
40534;DHT22;26233;51.894;10.192;2023-01-16T16:10:24;7.50;48.50
40534;DHT22;26233;51.894;10.192;2023-01-16T16:13:14;7.50;48.10
40534;DHT22;26233;51.894;10.192;2023-01-16T16:15:54;7.40;47.80
40534;DHT22;26233;51.894;10.192;2023-01-16T16:18:51;7.40;47.60
40534;DHT22;26233;51.894;10.192;2023-01-16T16:21:20;7.40;47.40
40534;DHT22;26233;51.894;10.192;2023-01-16T16:23:56;7.40;47.70
40534;DHT22;26233;51.894;10.192;2023-01-16T16:26:26;7.40;47.40